createdAt,value
2018-01-02T00:00:39.930Z,98916.38
2018-01-02T00:03:07.479Z,98913.73
2018-01-02T00:05:35.663Z,98918.21
2018-01-02T00:08:03.646Z,98926.27
2018-01-02T00:10:31.468Z,98925.08
2018-01-02T00:12:59.264Z,98925.64
2018-01-02T00:15:26.946Z,98925.64
2018-01-02T00:17:57.423Z,98934.12
2018-01-02T00:20:25.442Z,98927.20
2018-01-02T00:22:52.950Z,98932.73
2018-01-02T00:25:20.478Z,98942.59
2018-01-02T00:27:48.158Z,98946.10
2018-01-02T00:30:15.666Z,98944.80
2018-01-02T00:32:43.142Z,98951.44
2018-01-02T00:35:10.854Z,98960.48
2018-01-02T00:37:38.354Z,98950.22
2018-01-02T00:40:06.473Z,98961.19
2018-01-02T00:42:33.919Z,98970.90
2018-01-02T00:45:02.655Z,98972.13
2018-01-02T00:47:30.485Z,98970.56
2018-01-02T00:49:58.068Z,98982.18
2018-01-02T00:52:25.581Z,98981.88
2018-01-02T00:54:53.098Z,98987.45
2018-01-02T00:57:20.673Z,98988.45
2018-01-02T00:59:48.213Z,98988.22
2018-01-02T01:02:16.319Z,98987.70
2018-01-02T01:04:44.288Z,98995.36
2018-01-02T01:07:12.217Z,98988.52
2018-01-02T01:09:39.738Z,99011.09
2018-01-02T01:12:07.585Z,99003.81
2018-01-02T01:14:35.343Z,99008.52
2018-01-02T01:17:03.308Z,99018.11
2018-01-02T01:19:31.687Z,99028.42
2018-01-02T01:21:59.554Z,99036.78
2018-01-02T01:24:27.973Z,99048.25
2018-01-02T01:26:55.512Z,99046.66
2018-01-02T01:29:23.060Z,99049.38
2018-01-02T01:31:50.994Z,99042.52
2018-01-02T01:34:18.474Z,99056.56
2018-01-02T01:36:46.475Z,99067.73
2018-01-02T01:39:14.289Z,99071.77
2018-01-02T01:41:41.798Z,99077.26
2018-01-02T01:44:09.322Z,99074.80
2018-01-02T01:46:37.203Z,99076.48
2018-01-02T01:49:05.567Z,99084.44
2018-01-02T01:51:33.076Z,99087.13
2018-01-02T01:54:00.601Z,99080.36
2018-01-02T01:56:28.530Z,99089.22
2018-01-02T01:58:56.068Z,99085.38
2018-01-02T02:01:23.585Z,99091.61
2018-01-02T02:03:52.281Z,99091.95
2018-01-02T02:06:19.782Z,99097.70
2018-01-02T02:08:47.539Z,99101.08
2018-01-02T02:11:15.055Z,99099.77
2018-01-02T02:13:42.571Z,99106.42
2018-01-02T02:16:10.122Z,99108.03
2018-01-02T02:18:38.653Z,99102.19
2018-01-02T02:21:06.410Z,99097.11
2018-01-02T02:23:34.247Z,99104.99
2018-01-02T02:26:02.228Z,99104.20
2018-01-02T02:28:33.538Z,99106.81
2018-01-02T02:31:01.689Z,99107.41
2018-01-02T02:33:29.594Z,99092.44
2018-01-02T02:35:57.079Z,99108.33
2018-01-02T02:38:24.773Z,99102.86
2018-01-02T02:41:04.418Z,99116.59
2018-01-02T02:43:32.452Z,99115.63
2018-01-02T02:45:59.946Z,99117.87
2018-01-02T02:48:27.452Z,99117.46
2018-01-02T02:50:55.462Z,99122.59
2018-01-02T02:53:23.199Z,99127.94
2018-01-02T02:55:50.746Z,99111.66
2018-01-02T02:58:18.305Z,99118.70
2018-01-02T03:00:45.793Z,99123.82
2018-01-02T03:03:14.403Z,99111.84
2018-01-02T03:05:41.946Z,99121.05
2018-01-02T03:08:10.343Z,99125.88
2018-01-02T03:10:38.249Z,99124.91
2018-01-02T03:13:06.219Z,99132.31
2018-01-02T03:15:34.303Z,99130.32
2018-01-02T03:18:01.858Z,99123.28
2018-01-02T03:20:29.586Z,99129.02
2018-01-02T03:22:57.098Z,99126.92
2018-01-02T03:25:24.994Z,99120.98
2018-01-02T03:27:52.942Z,99123.67
2018-01-02T03:30:20.671Z,99128.45
2018-01-02T03:32:48.738Z,99131.52
2018-01-02T03:35:16.272Z,99119.81
2018-01-02T03:37:43.779Z,99130.77
2018-01-02T03:40:12.390Z,99121.34
2018-01-02T03:42:39.946Z,99116.70
2018-01-02T03:45:07.504Z,99124.58
2018-01-02T03:47:36.027Z,99130.98
2018-01-02T03:50:04.933Z,99133.97
2018-01-02T03:52:32.444Z,99136.70
2018-01-02T03:55:00.023Z,99140.18
2018-01-02T03:57:27.948Z,99143.36
2018-01-02T03:59:55.458Z,99153.70
2018-01-02T04:02:23.006Z,99152.11
2018-01-02T04:04:50.478Z,99154.98
2018-01-02T04:07:17.986Z,99155.02
2018-01-02T04:09:45.503Z,99155.36
2018-01-02T04:12:13.312Z,99127.95
2018-01-02T04:14:41.210Z,99163.25
2018-01-02T04:17:08.998Z,99172.19
2018-01-02T04:19:37.466Z,99160.90
2018-01-02T04:22:05.346Z,99175.14
2018-01-02T04:24:32.852Z,99184.48
2018-01-02T04:27:01.734Z,99188.93
2018-01-02T04:29:29.246Z,99186.34
2018-01-02T04:31:57.754Z,99197.50
2018-01-02T04:34:25.352Z,99204.98
2018-01-02T04:36:53.197Z,99218.80
2018-01-02T04:39:21.165Z,99217.08
2018-01-02T04:41:48.674Z,99222.98
2018-01-02T04:44:17.290Z,99224.23
2018-01-02T04:46:44.839Z,99226.69
2018-01-02T04:49:12.362Z,99244.14
2018-01-02T04:51:40.171Z,99242.54
2018-01-02T04:54:07.699Z,99252.84
2018-01-02T04:56:35.235Z,99260.81
2018-01-02T04:59:02.688Z,99262.00
2018-01-02T05:01:30.252Z,99264.64
2018-01-02T05:03:57.751Z,99270.34
2018-01-02T05:06:25.478Z,99262.84
2018-01-02T05:08:54.336Z,99270.71
2018-01-02T05:11:22.326Z,99271.69
2018-01-02T05:13:51.548Z,99275.72
2018-01-02T05:16:19.074Z,99293.88
2018-01-02T05:18:47.342Z,99302.84
2018-01-02T05:21:14.858Z,99299.67
2018-01-02T05:23:42.399Z,99301.59
2018-01-02T05:26:10.275Z,99323.01
2018-01-02T05:28:38.126Z,99328.45
2018-01-02T05:31:05.623Z,99325.38
2018-01-02T05:33:33.485Z,99336.05
2018-01-02T05:36:01.787Z,99319.89
2018-01-02T05:38:30.284Z,99349.07
2018-01-02T05:40:57.775Z,99353.84
2018-01-02T05:43:26.559Z,99344.45
2018-01-02T05:45:54.415Z,99376.31
2018-01-02T05:48:21.927Z,99374.66
2018-01-02T05:50:50.220Z,99384.77
2018-01-02T05:53:19.015Z,99383.26
2018-01-02T05:55:47.457Z,99376.10
2018-01-02T05:58:15.762Z,99392.63
2018-01-02T06:00:43.306Z,99393.55
2018-01-02T06:03:11.056Z,99392.77
2018-01-02T06:05:38.968Z,99406.23
2018-01-02T06:08:06.729Z,99407.27
2018-01-02T06:10:34.233Z,99409.77
2018-01-02T06:13:02.582Z,99427.88
2018-01-02T06:15:30.495Z,99432.44
2018-01-02T06:17:57.972Z,99417.58
2018-01-02T06:20:26.371Z,99445.67
2018-01-02T06:22:53.890Z,99438.38
2018-01-02T06:25:22.234Z,99450.38
2018-01-02T06:27:50.570Z,99456.94
2018-01-02T06:30:18.066Z,99469.84
2018-01-02T06:32:46.099Z,99471.44
2018-01-02T06:35:13.658Z,99470.61
2018-01-02T06:37:41.451Z,99479.09
2018-01-02T06:40:08.978Z,99488.52
2018-01-02T06:42:36.455Z,99490.58
2018-01-02T06:45:03.914Z,99494.99
2018-01-02T06:47:31.482Z,99495.98
2018-01-02T06:49:59.003Z,99492.91
2018-01-02T06:52:26.795Z,99494.31
2018-01-02T06:54:55.316Z,99506.59
2018-01-02T06:57:23.098Z,99487.78
2018-01-02T06:59:50.862Z,99514.69
2018-01-02T07:02:19.614Z,99528.97
2018-01-02T07:04:47.395Z,99519.98
2018-01-02T07:07:15.132Z,99511.69
2018-01-02T07:09:42.915Z,99523.36
2018-01-02T07:12:10.600Z,99521.25
2018-01-02T07:14:38.079Z,99529.52
2018-01-02T07:17:08.112Z,99533.58
2018-01-02T07:19:35.983Z,99544.70
2018-01-02T07:22:03.765Z,99530.31
2018-01-02T07:24:33.082Z,99543.63
2018-01-02T07:27:00.653Z,99563.45
2018-01-02T07:29:28.228Z,99568.41
2018-01-02T07:31:56.386Z,99571.78
2018-01-02T07:34:24.684Z,99585.13
2018-01-02T07:36:52.182Z,99584.37
2018-01-02T07:39:19.912Z,99558.19
2018-01-02T07:41:47.418Z,99589.86
2018-01-02T07:44:14.929Z,99617.30
2018-01-02T07:46:42.839Z,99626.23
2018-01-02T07:49:11.155Z,99635.43
2018-01-02T07:51:38.663Z,99642.72
2018-01-02T07:54:06.239Z,99637.60
2018-01-02T07:56:33.979Z,99635.84
2018-01-02T07:59:01.530Z,99655.63
2018-01-02T08:01:29.774Z,99668.63
2018-01-02T08:03:59.177Z,99677.05
2018-01-02T08:06:26.644Z,99683.37
2018-01-02T08:08:54.483Z,99688.13
2018-01-02T08:11:21.962Z,99705.63
2018-01-02T08:13:49.471Z,99692.44
2018-01-02T08:16:16.990Z,99702.03
2018-01-02T08:18:44.531Z,99702.39
2018-01-02T08:21:12.919Z,99704.78
2018-01-02T08:23:40.467Z,99704.43
2018-01-02T08:26:09.053Z,99713.75
2018-01-02T08:28:36.542Z,99713.99
2018-01-02T08:31:04.626Z,99727.45
2018-01-02T08:33:32.148Z,99725.64
2018-01-02T08:35:59.907Z,99722.86
2018-01-02T08:38:27.426Z,99737.11
2018-01-02T08:40:56.095Z,99734.17
2018-01-02T08:43:23.603Z,99729.25
2018-01-02T08:45:51.154Z,99745.17
2018-01-02T08:48:18.638Z,99753.78
2018-01-02T08:50:47.274Z,99760.80
2018-01-02T08:53:15.435Z,99755.28
2018-01-02T08:55:43.826Z,99762.38
2018-01-02T08:58:11.619Z,99744.38
2018-01-02T09:00:39.152Z,99753.45
2018-01-02T09:03:06.902Z,99752.02
2018-01-02T09:05:34.649Z,99762.11
2018-01-02T09:08:03.487Z,99757.66
2018-01-02T09:10:31.200Z,99754.98
2018-01-02T09:12:58.673Z,99765.50
2018-01-02T09:15:26.878Z,99774.52
2018-01-02T09:17:54.383Z,99768.41
2018-01-02T09:20:22.204Z,99777.13
2018-01-02T09:22:50.191Z,99769.00
2018-01-02T09:25:18.458Z,99770.92
2018-01-02T09:27:45.937Z,99778.59
2018-01-02T09:30:13.771Z,99780.69
2018-01-02T09:32:41.307Z,99785.37
2018-01-02T09:35:08.838Z,99797.28
2018-01-02T09:37:36.370Z,99797.83
2018-01-02T09:40:04.843Z,99798.71
2018-01-02T09:42:35.146Z,99801.35
2018-01-02T09:45:03.671Z,99807.48
2018-01-02T09:47:31.932Z,99806.52
2018-01-02T09:49:59.450Z,99802.95
2018-01-02T09:52:27.383Z,99807.10
2018-01-02T09:54:54.903Z,99807.52
2018-01-02T09:57:22.835Z,99795.37
2018-01-02T09:59:50.541Z,99808.09
2018-01-02T10:02:18.075Z,99816.18
2018-01-02T10:04:45.818Z,99817.28
2018-01-02T10:07:13.963Z,99802.34
2018-01-02T10:09:41.467Z,99817.14
2018-01-02T10:12:09.011Z,99814.39
2018-01-02T10:14:36.898Z,99817.73
2018-01-02T10:17:04.644Z,99813.98
2018-01-02T10:19:36.337Z,99809.62
2018-01-02T10:22:03.835Z,99817.57
2018-01-02T10:24:31.552Z,99810.77
2018-01-02T10:26:59.157Z,99820.59
2018-01-02T10:29:26.909Z,99827.02
2018-01-02T10:31:55.015Z,99831.13
2018-01-02T10:34:22.494Z,99828.43
2018-01-02T10:36:50.293Z,99836.31
2018-01-02T10:39:18.080Z,99837.82
2018-01-02T10:41:45.839Z,99840.14
2018-01-02T10:44:13.355Z,99852.09
2018-01-02T10:46:41.132Z,99843.98
2018-01-02T10:49:10.034Z,99841.30
2018-01-02T10:51:38.134Z,99844.70
2018-01-02T10:54:05.595Z,99843.63
2018-01-02T10:56:33.075Z,99847.16
2018-01-02T10:59:00.518Z,99845.82
2018-01-02T11:01:28.778Z,99847.00
2018-01-02T11:03:56.248Z,99849.92
2018-01-02T11:06:23.748Z,99849.39
2018-01-02T11:08:51.219Z,99854.23
2018-01-02T11:11:20.625Z,99853.15
2018-01-02T11:13:48.096Z,99863.09
2018-01-02T11:16:15.557Z,99861.70
2018-01-02T11:18:43.030Z,99858.54
2018-01-02T11:21:10.487Z,99868.83
2018-01-02T11:23:37.968Z,99864.63
2018-01-02T11:26:05.446Z,99862.23
2018-01-02T11:28:32.921Z,99870.13
2018-01-02T11:31:00.389Z,99874.80
2018-01-02T11:33:27.854Z,99879.22
2018-01-02T11:35:55.303Z,99879.47
2018-01-02T11:38:24.783Z,99879.16
2018-01-02T11:40:52.257Z,99880.09
2018-01-02T11:43:19.723Z,99873.45
2018-01-02T11:45:47.175Z,99863.32
2018-01-02T11:48:14.655Z,99862.65
2018-01-02T11:50:42.108Z,99864.94
2018-01-02T11:53:09.590Z,99869.75
2018-01-02T11:55:37.040Z,99868.42
2018-01-02T11:58:04.516Z,99857.03
2018-01-02T12:00:31.966Z,99866.19
2018-01-02T12:02:59.455Z,99858.30
2018-01-02T12:05:26.917Z,99849.30
2018-01-02T12:07:54.399Z,99848.06
2018-01-02T12:10:21.860Z,99851.18
2018-01-02T12:12:49.347Z,99838.97
2018-01-02T12:15:16.810Z,99833.58
2018-01-02T12:17:44.291Z,99822.77
2018-01-02T12:20:11.748Z,99827.44
2018-01-02T12:22:39.278Z,99824.95
2018-01-02T12:25:06.711Z,99823.22
2018-01-02T12:27:34.912Z,99812.59
2018-01-02T12:30:02.355Z,99809.40
2018-01-02T12:32:29.816Z,99801.95
2018-01-02T12:34:57.288Z,99800.81
2018-01-02T12:37:24.737Z,99792.79
2018-01-02T12:39:52.468Z,99790.39
2018-01-02T12:42:19.923Z,99795.98
2018-01-02T12:44:47.391Z,99791.61
2018-01-02T12:47:14.852Z,99792.94
2018-01-02T12:49:42.331Z,99788.36
2018-01-02T12:52:09.803Z,99789.81
2018-01-02T12:54:37.286Z,99789.78
2018-01-02T12:57:04.752Z,99798.45
2018-01-02T12:59:32.240Z,99798.77
2018-01-02T13:02:00.639Z,99796.84
2018-01-02T13:04:28.116Z,99806.42
2018-01-02T13:06:55.578Z,99814.09
2018-01-02T13:09:23.075Z,99824.73
2018-01-02T13:11:50.537Z,99822.12
2018-01-02T13:14:18.029Z,99821.24
2018-01-02T13:16:45.484Z,99826.47
2018-01-02T13:19:12.962Z,99817.52
2018-01-02T13:21:40.415Z,99819.16
2018-01-02T13:24:07.899Z,99808.36
2018-01-02T13:26:35.354Z,99807.66
2018-01-02T13:29:02.835Z,99808.47
2018-01-02T13:31:30.294Z,99797.91
2018-01-02T13:33:57.779Z,99811.33
2018-01-02T13:36:25.227Z,99807.95
2018-01-02T13:38:52.702Z,99794.59
2018-01-02T13:41:20.166Z,99794.52
2018-01-02T13:43:47.634Z,99793.14
2018-01-02T13:46:15.121Z,99794.86
2018-01-02T13:48:42.585Z,99791.62
2018-01-02T13:51:10.039Z,99781.34
2018-01-02T13:53:37.490Z,99794.65
2018-01-02T13:56:04.986Z,99788.82
2018-01-02T13:58:32.442Z,99789.21
2018-01-02T14:00:59.931Z,99788.00
2018-01-02T14:03:27.391Z,99783.66
2018-01-02T14:05:54.876Z,99777.91
2018-01-02T14:08:22.326Z,99780.41
2018-01-02T14:10:49.839Z,99776.27
2018-01-02T14:13:17.308Z,99777.41
2018-01-02T14:15:44.789Z,99785.61
2018-01-02T14:18:12.251Z,99782.97
2018-01-02T14:20:39.726Z,99792.36
2018-01-02T14:23:07.191Z,99797.60
2018-01-02T14:25:34.774Z,99790.34
2018-01-02T14:28:02.248Z,99791.38
2018-01-02T14:30:29.730Z,99779.18
2018-01-02T14:32:57.194Z,99779.22
2018-01-02T14:35:24.667Z,99764.60
2018-01-02T14:37:52.114Z,99755.58
2018-01-02T14:40:19.592Z,99742.39
2018-01-02T14:42:47.058Z,99731.77
2018-01-02T14:45:14.535Z,99730.98
2018-01-02T14:47:41.995Z,99732.13
2018-01-02T14:50:10.465Z,99735.22
2018-01-02T14:52:37.927Z,99734.29
2018-01-02T14:55:05.415Z,99729.71
2018-01-02T14:57:32.876Z,99717.59
2018-01-02T15:00:00.352Z,99711.66
2018-01-02T15:02:27.867Z,99713.91
2018-01-02T15:04:55.362Z,99723.70
2018-01-02T15:07:22.838Z,99719.45
2018-01-02T15:09:50.323Z,99710.13
2018-01-02T15:12:17.778Z,99715.23
2018-01-02T15:14:45.281Z,99726.08
2018-01-02T15:17:12.917Z,99723.13
2018-01-02T15:19:40.376Z,99726.70
2018-01-02T15:22:07.864Z,99725.00
2018-01-02T15:24:35.323Z,99728.19
2018-01-02T15:27:02.802Z,99728.33
2018-01-02T15:29:30.274Z,99726.67
2018-01-02T15:31:57.753Z,99713.91
2018-01-02T15:34:25.207Z,99721.73
2018-01-02T15:36:52.686Z,99724.26
2018-01-02T15:39:20.138Z,99731.70
2018-01-02T15:41:47.623Z,99725.41
2018-01-02T15:44:15.099Z,99712.73
2018-01-02T15:46:43.415Z,99707.20
2018-01-02T15:49:10.870Z,99709.34
2018-01-02T15:51:38.346Z,99714.01
2018-01-02T15:54:05.795Z,99708.55
2018-01-02T15:56:33.265Z,99712.02
2018-01-02T15:59:00.719Z,99712.16
2018-01-02T16:01:28.215Z,99714.85
2018-01-02T16:03:55.666Z,99716.72
2018-01-02T16:06:23.142Z,99709.33
2018-01-02T16:08:50.597Z,99709.09
2018-01-02T16:11:18.086Z,99704.47
2018-01-02T16:13:45.543Z,99700.38
2018-01-02T16:16:13.022Z,99700.78
2018-01-02T16:18:40.476Z,99699.18
2018-01-02T16:21:07.967Z,99690.22
2018-01-02T16:23:35.463Z,99679.39
2018-01-02T16:26:02.943Z,99676.05
2018-01-02T16:28:30.391Z,99669.42
2018-01-02T16:30:57.894Z,99668.80
2018-01-02T16:33:25.363Z,99652.80
2018-01-02T16:35:53.415Z,99645.96
2018-01-02T16:38:20.903Z,99642.50
2018-01-02T16:40:48.387Z,99642.28
2018-01-02T16:43:15.909Z,99626.59
2018-01-02T16:45:43.388Z,99631.73
2018-01-02T16:48:10.863Z,99629.50
2018-01-02T16:50:38.318Z,99625.77
2018-01-02T16:53:05.790Z,99612.59
2018-01-02T16:55:33.250Z,99616.62
2018-01-02T16:58:00.718Z,99613.99
2018-01-02T17:00:28.178Z,99595.95
2018-01-02T17:02:55.659Z,99595.28
2018-01-02T17:05:23.150Z,99588.95
2018-01-02T17:07:50.632Z,99596.63
2018-01-02T17:10:18.097Z,99591.80
2018-01-02T17:12:45.576Z,99587.56
2018-01-02T17:15:13.039Z,99588.13
2018-01-02T17:17:40.521Z,99579.33
2018-01-02T17:20:07.979Z,99567.45
2018-01-02T17:22:35.455Z,99554.30
2018-01-02T17:25:02.915Z,99561.60
2018-01-02T17:27:30.395Z,99564.56
2018-01-02T17:29:57.855Z,99549.78
2018-01-02T17:32:25.344Z,99547.91
2018-01-02T17:34:53.626Z,99540.36
2018-01-02T17:37:21.106Z,99519.99
2018-01-02T17:39:48.564Z,99502.73
2018-01-02T17:42:16.060Z,99504.10
2018-01-02T17:44:43.521Z,99512.18
2018-01-02T17:47:10.996Z,99521.13
2018-01-02T17:49:38.467Z,99526.91
2018-01-02T17:52:05.939Z,99522.16
2018-01-02T17:54:33.406Z,99516.31
2018-01-02T17:57:00.922Z,99515.42
2018-01-02T17:59:28.387Z,99521.13
2018-01-02T18:01:55.862Z,99520.39
2018-01-02T18:04:23.343Z,99516.95
2018-01-02T18:06:50.802Z,99512.98
2018-01-02T18:09:18.283Z,99511.15
2018-01-02T18:11:45.737Z,99509.23
2018-01-02T18:14:13.304Z,99500.50
2018-01-02T18:16:40.892Z,99495.17
2018-01-02T18:19:08.423Z,99489.55
2018-01-02T18:21:35.979Z,99490.03
2018-01-02T18:24:03.523Z,99487.75
2018-01-02T18:26:31.066Z,99483.09
2018-01-02T18:28:58.626Z,99471.33
2018-01-02T18:31:26.201Z,99461.54
2018-01-02T18:33:53.759Z,99447.89
2018-01-02T18:36:21.298Z,99441.27
2018-01-02T18:38:48.895Z,99426.30
2018-01-02T18:41:16.416Z,99418.23
2018-01-02T18:43:43.977Z,99412.55
2018-01-02T18:46:11.581Z,99412.03
2018-01-02T18:48:39.204Z,99407.01
2018-01-02T18:51:06.959Z,99397.76
2018-01-02T18:53:37.762Z,99395.02
2018-01-02T18:56:11.935Z,99393.06
2018-01-02T18:58:39.491Z,99389.99
2018-01-02T19:01:07.061Z,99380.55
2018-01-02T19:03:34.643Z,99373.41
2018-01-02T19:06:02.226Z,99357.84
2018-01-02T19:08:29.771Z,99349.30
2018-01-02T19:10:57.322Z,99344.28
2018-01-02T19:13:24.877Z,99339.53
2018-01-02T19:15:52.424Z,99341.25
2018-01-02T19:18:19.986Z,99347.38
2018-01-02T19:20:47.550Z,99329.49
2018-01-02T19:23:15.120Z,99322.53
2018-01-02T19:25:42.663Z,99325.22
2018-01-02T19:28:12.165Z,99310.02
2018-01-02T19:30:39.759Z,99301.90
2018-01-02T19:33:07.338Z,99302.02
2018-01-02T19:35:34.870Z,99289.14
2018-01-02T19:38:02.604Z,99279.03
2018-01-02T19:40:30.147Z,99268.59
2018-01-02T19:42:57.679Z,99264.14
2018-01-02T19:45:25.244Z,99265.48
2018-01-02T19:47:52.761Z,99255.63
2018-01-02T19:50:20.339Z,99252.19
2018-01-02T19:52:47.925Z,99256.48
2018-01-02T19:55:15.534Z,99261.13
2018-01-02T19:57:43.097Z,99254.01
2018-01-02T20:00:10.653Z,99241.55
2018-01-02T20:02:38.225Z,99233.49
2018-01-02T20:05:05.813Z,99232.91
2018-01-02T20:07:37.678Z,99224.33
2018-01-02T20:10:05.249Z,99214.22
2018-01-02T20:12:32.839Z,99212.13
2018-01-02T20:15:00.393Z,99215.69
2018-01-02T20:17:27.916Z,99218.38
2018-01-02T20:19:55.512Z,99212.31
2018-01-02T20:22:23.040Z,99195.63
2018-01-02T20:24:50.631Z,99197.75
2018-01-02T20:27:18.188Z,99183.88
2018-01-02T20:29:45.808Z,99180.89
2018-01-02T20:32:13.335Z,99165.27
2018-01-02T20:34:41.308Z,99159.80
2018-01-02T20:37:08.863Z,99155.75
2018-01-02T20:39:36.529Z,99164.04
2018-01-02T20:42:04.151Z,99164.33
2018-01-02T20:44:31.710Z,99153.02
2018-01-02T20:46:59.287Z,99148.83
2018-01-02T20:49:26.860Z,99146.62
2018-01-02T20:51:54.441Z,99141.38
2018-01-02T20:54:34.579Z,99143.23
2018-01-02T20:57:02.096Z,99147.30
2018-01-02T20:59:29.621Z,99154.45
2018-01-02T21:01:57.159Z,99142.17
2018-01-02T21:04:24.856Z,99136.59
2018-01-02T21:06:52.452Z,99126.03
2018-01-02T21:09:19.971Z,99120.11
2018-01-02T21:11:47.565Z,99110.14
2018-01-02T21:14:15.243Z,99110.89
2018-01-02T21:16:42.846Z,99095.65
2018-01-02T21:19:10.404Z,99090.92
2018-01-02T21:21:37.999Z,99082.96
2018-01-02T21:24:05.487Z,99077.09
2018-01-02T21:26:33.110Z,99070.50
2018-01-02T21:29:00.673Z,99071.61
2018-01-02T21:31:28.223Z,99054.72
2018-01-02T21:33:55.792Z,99052.47
2018-01-02T21:36:23.312Z,99056.79
2018-01-02T21:38:50.908Z,99051.40
2018-01-02T21:41:18.468Z,99040.64
2018-01-02T21:43:46.031Z,99028.81
2018-01-02T21:46:13.578Z,99021.64
2018-01-02T21:48:41.150Z,99015.56
2018-01-02T21:51:08.735Z,99009.22
2018-01-02T21:53:36.287Z,98995.03
2018-01-02T21:56:03.827Z,98989.74
2018-01-02T21:58:31.384Z,98979.97
2018-01-02T22:00:58.945Z,98978.30
2018-01-02T22:03:26.496Z,98969.81
2018-01-02T22:05:54.062Z,98956.31
2018-01-02T22:08:21.583Z,98944.45
2018-01-02T22:10:53.520Z,98934.45
2018-01-02T22:13:21.087Z,98926.52
2018-01-02T22:15:48.670Z,98917.36
2018-01-02T22:18:16.232Z,98916.50
2018-01-02T22:20:43.844Z,98899.41
2018-01-02T22:23:11.433Z,98894.67
2018-01-02T22:25:38.961Z,98877.25
2018-01-02T22:28:06.486Z,98872.38
2018-01-02T22:30:34.023Z,98866.85
2018-01-02T22:33:01.648Z,98861.30
2018-01-02T22:35:29.165Z,98853.48
2018-01-02T22:37:56.783Z,98844.81
2018-01-02T22:40:24.323Z,98826.46
2018-01-02T22:42:51.819Z,98820.91
2018-01-02T22:45:19.411Z,98807.80
2018-01-02T22:47:46.957Z,98806.45
2018-01-02T22:50:14.530Z,98806.33
2018-01-02T22:52:42.091Z,98795.89
2018-01-02T22:55:10.311Z,98795.48
2018-01-02T22:57:37.883Z,98781.72
2018-01-02T23:00:05.414Z,98771.44
2018-01-02T23:02:32.943Z,98764.68
2018-01-02T23:05:00.485Z,98759.94
2018-01-02T23:07:28.030Z,98753.99
2018-01-02T23:09:55.579Z,98751.98
2018-01-02T23:12:23.153Z,98749.45
2018-01-02T23:14:50.709Z,98752.98
2018-01-02T23:17:18.256Z,98745.66
2018-01-02T23:19:45.757Z,98754.05
2018-01-02T23:22:13.319Z,98742.42
2018-01-02T23:24:40.867Z,98736.77
2018-01-02T23:27:08.443Z,98735.66
2018-01-02T23:29:35.954Z,98725.52
2018-01-02T23:32:03.526Z,98724.73
2018-01-02T23:34:31.089Z,98727.16
2018-01-02T23:36:58.644Z,98713.22
2018-01-02T23:39:26.224Z,98703.59
2018-01-02T23:41:53.776Z,98686.44
2018-01-02T23:44:21.304Z,98669.51
2018-01-02T23:46:48.844Z,98650.70
2018-01-02T23:49:16.412Z,98624.50
2018-01-02T23:51:43.937Z,98620.59
2018-01-02T23:54:11.471Z,98604.61
2018-01-02T23:56:39.007Z,98597.99
2018-01-02T23:59:06.560Z,98582.78
